createdAt,value
2017-08-30T00:00:29.507Z,0
2017-08-30T00:01:39.796Z,0
2017-08-30T00:02:50.350Z,0
2017-08-30T00:04:00.872Z,0
2017-08-30T00:05:11.155Z,0
2017-08-30T00:06:21.433Z,0
2017-08-30T00:07:31.703Z,0
2017-08-30T00:08:41.977Z,0
2017-08-30T00:09:52.527Z,0
2017-08-30T00:11:03.480Z,0
2017-08-30T00:12:13.438Z,0
2017-08-30T00:13:23.721Z,0
2017-08-30T00:14:33.678Z,0
2017-08-30T00:15:43.907Z,0
2017-08-30T00:16:54.184Z,0
2017-08-30T00:18:04.136Z,0
2017-08-30T00:19:14.411Z,0
2017-08-30T00:20:24.370Z,0
2017-08-30T00:21:34.907Z,0
2017-08-30T00:22:44.878Z,0
2017-08-30T00:23:55.147Z,0
2017-08-30T00:25:05.423Z,0
2017-08-30T00:26:15.383Z,0
2017-08-30T00:27:25.268Z,0
2017-08-30T00:28:35.251Z,0
2017-08-30T00:29:45.546Z,0
2017-08-30T00:30:55.520Z,0
2017-08-30T00:32:05.499Z,0
2017-08-30T00:33:16.025Z,0
2017-08-30T00:34:25.972Z,0
2017-08-30T00:35:36.251Z,0
2017-08-30T00:36:46.666Z,0
2017-08-30T00:37:56.632Z,0
2017-08-30T00:39:07.162Z,0
2017-08-30T00:40:17.451Z,0
2017-08-30T00:41:27.738Z,0
2017-08-30T00:42:37.698Z,0
2017-08-30T00:43:47.968Z,0
2017-08-30T00:44:58.498Z,0
2017-08-30T00:46:08.779Z,0
2017-08-30T00:47:19.056Z,0
2017-08-30T00:48:29.022Z,0
2017-08-30T00:49:39.307Z,0
2017-08-30T00:50:49.837Z,0
2017-08-30T00:51:59.808Z,0
2017-08-30T00:53:09.773Z,0
2017-08-30T00:54:19.119Z,0
2017-08-30T00:55:29.098Z,0
2017-08-30T00:56:39.616Z,0
2017-08-30T00:57:49.884Z,0
2017-08-30T00:58:59.861Z,0
2017-08-30T01:00:09.508Z,0
2017-08-30T01:01:19.158Z,0
2017-08-30T01:02:29.695Z,0
2017-08-30T01:03:39.634Z,0
2017-08-30T01:04:49.601Z,0
2017-08-30T01:05:59.880Z,0
2017-08-30T01:07:10.158Z,0
2017-08-30T01:08:20.371Z,0
2017-08-30T01:09:30.656Z,0
2017-08-30T01:10:40.607Z,0
2017-08-30T01:11:51.284Z,0
2017-08-30T01:13:01.572Z,0
2017-08-30T01:14:12.092Z,0
2017-08-30T01:15:22.046Z,0
2017-08-30T01:16:32.331Z,0
2017-08-30T01:17:42.298Z,0
2017-08-30T01:18:52.582Z,0
2017-08-30T01:20:03.105Z,0
2017-08-30T01:21:13.076Z,0
2017-08-30T01:22:23.919Z,0
2017-08-30T01:23:34.198Z,0
2017-08-30T01:24:43.836Z,0
2017-08-30T01:25:54.390Z,0
2017-08-30T01:27:04.357Z,0
2017-08-30T01:28:14.327Z,0
2017-08-30T01:29:24.302Z,0
2017-08-30T01:30:34.258Z,0
2017-08-30T01:31:44.481Z,0
2017-08-30T01:32:54.451Z,0
2017-08-30T01:34:04.725Z,0
2017-08-30T01:35:14.699Z,0
2017-08-30T01:36:24.961Z,0
2017-08-30T01:37:35.512Z,0
2017-08-30T01:38:45.788Z,0
2017-08-30T01:39:55.423Z,0
2017-08-30T01:41:05.702Z,0
2017-08-30T01:42:15.684Z,0
2017-08-30T01:43:25.902Z,0
2017-08-30T01:44:36.265Z,0
2017-08-30T01:45:46.537Z,0
2017-08-30T01:46:56.490Z,0
2017-08-30T01:48:06.464Z,0
2017-08-30T01:49:16.992Z,0
2017-08-30T01:50:27.322Z,0
2017-08-30T01:51:37.585Z,0
2017-08-30T01:52:47.884Z,0
2017-08-30T01:53:58.162Z,0
2017-08-30T01:55:08.400Z,0
2017-08-30T01:56:18.664Z,0
2017-08-30T01:57:28.637Z,0
2017-08-30T01:58:38.916Z,0
2017-08-30T01:59:49.198Z,0
2017-08-30T02:00:59.732Z,0
2017-08-30T02:02:10.012Z,0
2017-08-30T02:03:20.273Z,0
2017-08-30T02:04:30.565Z,0
2017-08-30T02:05:40.531Z,0
2017-08-30T02:06:50.408Z,0
2017-08-30T02:08:00.681Z,0
2017-08-30T02:09:10.968Z,0
2017-08-30T02:10:20.928Z,0
2017-08-30T02:11:30.897Z,0
2017-08-30T02:12:41.432Z,0
2017-08-30T02:13:51.383Z,0
2017-08-30T02:15:01.668Z,0
2017-08-30T02:16:11.641Z,0
2017-08-30T02:17:21.601Z,0
2017-08-30T02:18:32.129Z,0
2017-08-30T02:19:41.782Z,0
2017-08-30T02:20:52.062Z,0
2017-08-30T02:22:02.334Z,0
2017-08-30T02:23:12.604Z,0
2017-08-30T02:24:23.144Z,0
2017-08-30T02:25:33.433Z,0
2017-08-30T02:26:43.392Z,0
2017-08-30T02:27:53.653Z,0
2017-08-30T02:29:03.938Z,0
2017-08-30T02:30:14.155Z,0
2017-08-30T02:31:24.447Z,0
2017-08-30T02:32:34.416Z,0
2017-08-30T02:33:44.383Z,0
2017-08-30T02:34:54.654Z,0
2017-08-30T02:36:04.560Z,0
2017-08-30T02:37:14.202Z,0
2017-08-30T02:38:24.487Z,0
2017-08-30T02:39:34.756Z,0
2017-08-30T02:40:45.023Z,0
2017-08-30T02:41:54.938Z,0
2017-08-30T02:43:05.218Z,0
2017-08-30T02:44:15.498Z,0
2017-08-30T02:45:25.151Z,0
2017-08-30T02:46:35.434Z,0
2017-08-30T02:47:45.640Z,0
2017-08-30T02:48:55.905Z,0
2017-08-30T02:50:05.865Z,0
2017-08-30T02:51:16.152Z,0
2017-08-30T02:52:26.429Z,0
2017-08-30T02:53:36.655Z,0
2017-08-30T02:54:46.957Z,0
2017-08-30T02:55:56.910Z,0
2017-08-30T02:57:07.157Z,0
2017-08-30T02:58:16.812Z,0
2017-08-30T02:59:27.019Z,0
2017-08-30T03:00:36.989Z,0
2017-08-30T03:01:47.271Z,0
2017-08-30T03:02:57.546Z,0
2017-08-30T03:04:07.506Z,0
2017-08-30T03:05:17.704Z,0
2017-08-30T03:06:27.969Z,0
2017-08-30T03:07:38.257Z,0
2017-08-30T03:08:48.225Z,0
2017-08-30T03:09:58.506Z,0
2017-08-30T03:11:09.046Z,0
2017-08-30T03:12:19.335Z,0
2017-08-30T03:13:29.627Z,0
2017-08-30T03:14:39.918Z,0
2017-08-30T03:15:50.192Z,0
2017-08-30T03:17:00.740Z,0
2017-08-30T03:18:10.731Z,0
2017-08-30T03:19:20.698Z,0
2017-08-30T03:20:30.982Z,0
2017-08-30T03:21:41.262Z,0
2017-08-30T03:22:51.794Z,0
2017-08-30T03:24:02.081Z,0
2017-08-30T03:25:12.357Z,0
2017-08-30T03:26:22.707Z,0
2017-08-30T03:27:32.972Z,0
2017-08-30T03:28:43.491Z,0
2017-08-30T03:29:53.767Z,0
2017-08-30T03:31:04.051Z,0
2017-08-30T03:32:14.005Z,0
2017-08-30T03:33:24.291Z,0
2017-08-30T03:34:34.820Z,0
2017-08-30T03:35:44.794Z,0
2017-08-30T03:36:55.073Z,0
2017-08-30T03:38:05.348Z,4
2017-08-30T03:39:15.302Z,0
2017-08-30T03:40:25.820Z,4
2017-08-30T03:41:36.119Z,4
2017-08-30T03:42:46.073Z,4
2017-08-30T03:43:56.027Z,8
2017-08-30T03:45:06.322Z,8
2017-08-30T03:46:16.865Z,12
2017-08-30T03:47:27.131Z,8
2017-08-30T03:48:37.401Z,16
2017-08-30T03:49:47.348Z,20
2017-08-30T03:50:57.322Z,20
2017-08-30T03:52:07.857Z,24
2017-08-30T03:53:18.122Z,32
2017-08-30T03:54:28.079Z,40
2017-08-30T03:55:38.044Z,48
2017-08-30T03:56:48.323Z,56
2017-08-30T03:57:58.518Z,68
2017-08-30T03:59:08.150Z,80
2017-08-30T04:00:18.093Z,100
2017-08-30T04:01:28.079Z,116
2017-08-30T04:02:38.027Z,136
2017-08-30T04:03:48.237Z,156
2017-08-30T04:04:58.514Z,184
2017-08-30T04:06:08.787Z,216
2017-08-30T04:07:18.774Z,248
2017-08-30T04:08:29.067Z,284
2017-08-30T04:09:39.618Z,324
2017-08-30T04:10:49.573Z,368
2017-08-30T04:11:59.867Z,416
2017-08-30T04:13:09.515Z,468
2017-08-30T04:14:19.805Z,520
2017-08-30T04:15:29.689Z,576
2017-08-30T04:16:39.335Z,636
2017-08-30T04:17:49.608Z,700
2017-08-30T04:18:59.907Z,772
2017-08-30T04:20:10.190Z,840
2017-08-30T04:21:20.717Z,916
2017-08-30T04:22:30.982Z,992
2017-08-30T04:23:41.240Z,1076
2017-08-30T04:24:51.522Z,1156
2017-08-30T04:26:01.808Z,1240
2017-08-30T04:27:12.017Z,1328
2017-08-30T04:28:21.973Z,1420
2017-08-30T04:29:32.253Z,1512
2017-08-30T04:30:42.219Z,1608
2017-08-30T04:31:52.489Z,1704
2017-08-30T04:33:03.017Z,1804
2017-08-30T04:34:12.950Z,1900
2017-08-30T04:35:22.901Z,2000
2017-08-30T04:36:32.848Z,2100
2017-08-30T04:37:42.497Z,2200
2017-08-30T04:38:53.000Z,2296
2017-08-30T04:40:02.637Z,2392
2017-08-30T04:41:12.900Z,2492
2017-08-30T04:42:23.185Z,2584
2017-08-30T04:43:33.454Z,2680
2017-08-30T04:44:43.665Z,2772
2017-08-30T04:45:53.982Z,2864
2017-08-30T04:47:03.940Z,2944
2017-08-30T04:48:14.218Z,3028
2017-08-30T04:49:24.168Z,3116
2017-08-30T04:50:34.424Z,3204
2017-08-30T04:51:44.401Z,3288
2017-08-30T04:52:54.370Z,3376
2017-08-30T04:54:04.661Z,3464
2017-08-30T04:55:14.653Z,3552
2017-08-30T04:56:24.868Z,3636
2017-08-30T04:57:35.139Z,3720
2017-08-30T04:58:45.417Z,3804
2017-08-30T04:59:55.390Z,3888
2017-08-30T05:01:05.671Z,3964
2017-08-30T05:02:16.194Z,4044
2017-08-30T05:03:26.174Z,4116
2017-08-30T05:04:36.458Z,4192
2017-08-30T05:05:46.720Z,4268
2017-08-30T05:06:56.685Z,4344
2017-08-30T05:08:07.201Z,4416
2017-08-30T05:09:17.583Z,4496
2017-08-30T05:10:27.880Z,4568
2017-08-30T05:11:37.850Z,4640
2017-08-30T05:12:47.809Z,4708
2017-08-30T05:13:58.009Z,4780
2017-08-30T05:15:08.297Z,4844
2017-08-30T05:16:18.251Z,4904
2017-08-30T05:17:28.548Z,4964
2017-08-30T05:18:38.820Z,5020
2017-08-30T05:19:49.343Z,5080
2017-08-30T05:20:59.625Z,5140
2017-08-30T05:22:09.922Z,5200
2017-08-30T05:23:20.208Z,5256
2017-08-30T05:24:30.514Z,5316
2017-08-30T05:25:40.735Z,5376
2017-08-30T05:26:50.685Z,5436
2017-08-30T05:28:00.994Z,5488
2017-08-30T05:29:11.263Z,5548
2017-08-30T05:30:21.223Z,5600
2017-08-30T05:31:31.752Z,5656
2017-08-30T05:32:42.029Z,5712
2017-08-30T05:33:52.006Z,5760
2017-08-30T05:35:02.278Z,5812
2017-08-30T05:36:12.567Z,5864
2017-08-30T05:37:22.468Z,5920
2017-08-30T05:38:32.742Z,5968
2017-08-30T05:39:43.033Z,6020
2017-08-30T05:40:53.313Z,6068
2017-08-30T05:42:03.293Z,6112
2017-08-30T05:43:13.828Z,6160
2017-08-30T05:44:24.101Z,6204
2017-08-30T05:45:34.070Z,6252
2017-08-30T05:46:44.046Z,6300
2017-08-30T05:47:54.003Z,6348
2017-08-30T05:49:04.223Z,6396
2017-08-30T05:50:14.484Z,6448
2017-08-30T05:51:24.753Z,6500
2017-08-30T05:52:34.726Z,6548
2017-08-30T05:53:44.993Z,6584
2017-08-30T05:54:55.539Z,6636
2017-08-30T05:56:05.809Z,6684
2017-08-30T05:57:16.092Z,6736
2017-08-30T05:58:25.744Z,6788
2017-08-30T05:59:36.012Z,6836
2017-08-30T06:00:45.906Z,6884
2017-08-30T06:01:56.199Z,6924
2017-08-30T06:03:06.493Z,6964
2017-08-30T06:04:16.758Z,7004
2017-08-30T06:05:26.709Z,7044
2017-08-30T06:06:37.238Z,7084
2017-08-30T06:07:47.515Z,7120
2017-08-30T06:08:57.492Z,7168
2017-08-30T06:10:07.769Z,7216
2017-08-30T06:11:17.722Z,7264
2017-08-30T06:12:28.269Z,7312
2017-08-30T06:13:38.566Z,7376
2017-08-30T06:14:48.838Z,7404
2017-08-30T06:15:58.491Z,7448
2017-08-30T06:17:08.771Z,7484
2017-08-30T06:18:19.295Z,7520
2017-08-30T06:19:29.304Z,7552
2017-08-30T06:20:39.580Z,7580
2017-08-30T06:21:49.859Z,7612
2017-08-30T06:23:00.137Z,7652
2017-08-30T06:24:10.666Z,7692
2017-08-30T06:25:20.963Z,7728
2017-08-30T06:26:30.946Z,7772
2017-08-30T06:27:41.221Z,7804
2017-08-30T06:28:51.499Z,7844
2017-08-30T06:30:01.792Z,7876
2017-08-30T06:31:12.410Z,7920
2017-08-30T06:32:22.710Z,7952
2017-08-30T06:33:33.017Z,7992
2017-08-30T06:34:42.980Z,8024
2017-08-30T06:35:53.776Z,8052
2017-08-30T06:37:03.761Z,8092
2017-08-30T06:38:14.039Z,8120
2017-08-30T06:39:24.343Z,8156
2017-08-30T06:40:34.641Z,8196
2017-08-30T06:41:45.171Z,8276
2017-08-30T06:42:54.846Z,8376
2017-08-30T06:44:05.151Z,8472
2017-08-30T06:45:15.493Z,8548
2017-08-30T06:46:25.842Z,8624
2017-08-30T06:47:36.387Z,8692
2017-08-30T06:48:46.665Z,8760
2017-08-30T06:49:56.619Z,8820
2017-08-30T06:51:06.899Z,8884
2017-08-30T06:52:17.194Z,8956
2017-08-30T06:53:27.434Z,9028
2017-08-30T06:54:37.760Z,9096
2017-08-30T06:55:48.311Z,9152
2017-08-30T06:56:58.638Z,9196
2017-08-30T06:58:08.592Z,9244
2017-08-30T06:59:18.883Z,9284
2017-08-30T07:00:28.875Z,9328
2017-08-30T07:01:39.185Z,9376
2017-08-30T07:02:49.153Z,9420
2017-08-30T07:03:59.125Z,9468
2017-08-30T07:05:09.677Z,9512
2017-08-30T07:06:19.626Z,9560
2017-08-30T07:07:29.936Z,9596
2017-08-30T07:08:39.604Z,9648
2017-08-30T07:09:49.887Z,9692
2017-08-30T07:11:00.438Z,9740
2017-08-30T07:12:10.728Z,9788
2017-08-30T07:13:21.009Z,9844
2017-08-30T07:14:30.996Z,9928
2017-08-30T07:15:40.691Z,9980
2017-08-30T07:16:51.244Z,10016
2017-08-30T07:18:01.540Z,10056
2017-08-30T07:19:11.807Z,10080
2017-08-30T07:20:22.073Z,10112
2017-08-30T07:21:32.344Z,10140
2017-08-30T07:22:42.897Z,10176
2017-08-30T07:23:52.871Z,10216
2017-08-30T07:25:03.185Z,10264
2017-08-30T07:26:13.472Z,10316
2017-08-30T07:27:23.448Z,10352
2017-08-30T07:28:33.977Z,10392
2017-08-30T07:29:44.255Z,10464
2017-08-30T07:30:54.224Z,10504
2017-08-30T07:32:04.516Z,10564
2017-08-30T07:33:14.841Z,10616
2017-08-30T07:34:25.091Z,10668
2017-08-30T07:35:35.383Z,10708
2017-08-30T07:36:45.693Z,10736
2017-08-30T07:37:55.672Z,10780
2017-08-30T07:39:05.633Z,10816
2017-08-30T07:40:16.208Z,10856
2017-08-30T07:41:26.164Z,10912
2017-08-30T07:42:36.456Z,10948
2017-08-30T07:43:46.434Z,10980
2017-08-30T07:44:56.717Z,11008
2017-08-30T07:46:07.250Z,11048
2017-08-30T07:47:17.250Z,11088
2017-08-30T07:48:27.190Z,11120
2017-08-30T07:49:37.471Z,11152
2017-08-30T07:50:47.796Z,11176
2017-08-30T07:51:58.023Z,11188
2017-08-30T07:53:08.312Z,11224
2017-08-30T07:54:18.587Z,11252
2017-08-30T07:55:28.542Z,11284
2017-08-30T07:56:38.516Z,11308
2017-08-30T07:57:48.729Z,11344
2017-08-30T07:58:59.001Z,11380
2017-08-30T08:00:09.289Z,11424
2017-08-30T08:01:19.265Z,11480
2017-08-30T08:02:29.551Z,11552
2017-08-30T08:03:40.143Z,11648
2017-08-30T08:04:50.443Z,11752
2017-08-30T08:06:00.466Z,11868
2017-08-30T08:07:10.757Z,11996
2017-08-30T08:08:21.032Z,12108
2017-08-30T08:09:31.576Z,12208
2017-08-30T08:10:41.534Z,12300
2017-08-30T08:11:51.813Z,12396
2017-08-30T08:13:01.809Z,12516
2017-08-30T08:14:11.790Z,12652
2017-08-30T08:15:22.016Z,12800
2017-08-30T08:16:32.274Z,12948
2017-08-30T08:17:42.549Z,13100
2017-08-30T08:18:52.520Z,14516
2017-08-30T08:20:02.473Z,28416
2017-08-30T08:21:13.019Z,34912
2017-08-30T08:22:22.974Z,37824
2017-08-30T08:23:33.265Z,38752
2017-08-30T08:24:43.224Z,39808
2017-08-30T08:25:53.538Z,40416
2017-08-30T08:27:04.109Z,38400
2017-08-30T08:28:14.381Z,39360
2017-08-30T08:29:24.372Z,41600
2017-08-30T08:30:34.657Z,42368
2017-08-30T08:31:44.008Z,39584
2017-08-30T08:32:54.755Z,40192
2017-08-30T08:34:04.559Z,43296
2017-08-30T08:35:14.508Z,44512
2017-08-30T08:36:24.479Z,44096
2017-08-30T08:37:34.766Z,43072
2017-08-30T08:38:44.982Z,42752
2017-08-30T08:39:55.304Z,45408
2017-08-30T08:41:05.596Z,47936
2017-08-30T08:42:15.891Z,47072
2017-08-30T08:43:26.188Z,47872
2017-08-30T08:44:36.416Z,48640
2017-08-30T08:45:46.728Z,49760
2017-08-30T08:46:56.711Z,49632
2017-08-30T08:48:06.677Z,49088
2017-08-30T08:49:16.982Z,48928
2017-08-30T08:50:27.534Z,50144
2017-08-30T08:51:37.827Z,51680
2017-08-30T08:52:48.124Z,52064
2017-08-30T08:53:57.469Z,53984
2017-08-30T08:55:07.762Z,54752
2017-08-30T08:56:18.303Z,53824
2017-08-30T08:57:28.603Z,54016
2017-08-30T08:58:38.895Z,54944
2017-08-30T08:59:49.195Z,55808
2017-08-30T09:00:59.492Z,56096
2017-08-30T09:02:10.028Z,58080
2017-08-30T09:03:20.335Z,59456
2017-08-30T09:04:30.638Z,59520
2017-08-30T09:05:40.624Z,58272
2017-08-30T09:06:50.625Z,61344
2017-08-30T09:08:00.861Z,62816
2017-08-30T09:09:11.152Z,62880
2017-08-30T09:10:21.138Z,63648
2017-08-30T09:11:31.442Z,64032
2017-08-30T09:12:41.738Z,65696
2017-08-30T09:13:52.294Z,64864
2017-08-30T09:15:02.593Z,64608
2017-08-30T09:16:12.890Z,67968
2017-08-30T09:17:23.197Z,67904
2017-08-30T09:18:33.544Z,67072
2017-08-30T09:19:43.782Z,68192
2017-08-30T09:20:54.085Z,68000
2017-08-30T09:22:04.379Z,70016
2017-08-30T09:23:14.670Z,69280
2017-08-30T09:24:24.347Z,69248
2017-08-30T09:25:34.926Z,69984
2017-08-30T09:26:44.890Z,70208
2017-08-30T09:27:54.539Z,71008
2017-08-30T09:29:04.883Z,73376
2017-08-30T09:30:14.856Z,74080
2017-08-30T09:31:25.391Z,75616
2017-08-30T09:32:35.702Z,75936
2017-08-30T09:33:46.004Z,75648
2017-08-30T09:34:56.323Z,78144
2017-08-30T09:36:06.668Z,78848
2017-08-30T09:37:16.607Z,78240
2017-08-30T09:38:26.904Z,79456
2017-08-30T09:39:36.879Z,79552
2017-08-30T09:40:47.167Z,76960
2017-08-30T09:41:57.141Z,82880
2017-08-30T09:43:07.057Z,86688
2017-08-30T09:44:17.350Z,83968
2017-08-30T09:45:27.315Z,81664
2017-08-30T09:46:37.610Z,89312
2017-08-30T09:47:47.907Z,90144
2017-08-30T09:48:58.156Z,85088
2017-08-30T09:50:08.443Z,76096
2017-08-30T09:51:18.750Z,77056
2017-08-30T09:52:28.729Z,81920
2017-08-30T09:53:39.014Z,88128
2017-08-30T09:54:49.557Z,84160
2017-08-30T09:55:59.536Z,86144
2017-08-30T09:57:09.518Z,90752
2017-08-30T09:58:19.815Z,89280
2017-08-30T09:59:30.125Z,85024
2017-08-30T10:00:40.670Z,84448
2017-08-30T10:01:50.957Z,88384
2017-08-30T10:03:00.943Z,93920
2017-08-30T10:04:11.249Z,91104
2017-08-30T10:05:21.229Z,89952
2017-08-30T10:06:31.150Z,92544
2017-08-30T10:07:41.464Z,95616
2017-08-30T10:08:51.438Z,93184
2017-08-30T10:10:01.444Z,95712
2017-08-30T10:11:11.736Z,97792
2017-08-30T10:12:22.273Z,96256
2017-08-30T10:13:32.584Z,86688
2017-08-30T10:14:42.568Z,89504
2017-08-30T10:15:52.938Z,94944
2017-08-30T10:17:03.250Z,97440
2017-08-30T10:18:13.813Z,96096
2017-08-30T10:19:23.782Z,99008
2017-08-30T10:20:34.078Z,95040
2017-08-30T10:21:44.364Z,99072
2017-08-30T10:22:54.380Z,102656
2017-08-30T10:24:05.000Z,95360
2017-08-30T10:25:14.998Z,98912
2017-08-30T10:26:24.972Z,101312
2017-08-30T10:27:34.964Z,102976
2017-08-30T10:28:44.952Z,105280
2017-08-30T10:29:55.502Z,103712
2017-08-30T10:31:05.796Z,104448
2017-08-30T10:32:16.157Z,99936
2017-08-30T10:33:26.481Z,102496
2017-08-30T10:34:36.789Z,108288
2017-08-30T10:35:47.029Z,104192
2017-08-30T10:36:57.328Z,105984
2017-08-30T10:38:06.989Z,106368
2017-08-30T10:39:17.292Z,100096
2017-08-30T10:40:27.596Z,102592
2017-08-30T10:41:37.826Z,106144
2017-08-30T10:42:48.129Z,101984
2017-08-30T10:43:58.421Z,104800
2017-08-30T10:45:08.737Z,107168
2017-08-30T10:46:19.048Z,105664
2017-08-30T10:47:29.598Z,110880
2017-08-30T10:48:39.895Z,109760
2017-08-30T10:49:50.186Z,101760
2017-08-30T10:51:00.487Z,107072
2017-08-30T10:52:10.176Z,107104
2017-08-30T10:53:20.732Z,104896
2017-08-30T10:54:30.703Z,105952
2017-08-30T10:55:41.035Z,109600
2017-08-30T10:56:51.339Z,115104
2017-08-30T10:58:01.666Z,109824
2017-08-30T10:59:12.232Z,110400
2017-08-30T11:00:22.217Z,111552
2017-08-30T11:01:32.512Z,110624
2017-08-30T11:02:42.864Z,108416
2017-08-30T11:03:53.183Z,119424
2017-08-30T11:05:03.755Z,117440
2017-08-30T11:06:13.421Z,110880
2017-08-30T11:07:23.731Z,118080
2017-08-30T11:08:34.047Z,116928
2017-08-30T11:09:44.390Z,111296
2017-08-30T11:10:54.959Z,110784
2017-08-30T11:12:04.995Z,104224
2017-08-30T11:13:14.689Z,111232
2017-08-30T11:14:24.681Z,121440
2017-08-30T11:15:35.016Z,108896
2017-08-30T11:16:45.251Z,109248
2017-08-30T11:17:55.596Z,115584
2017-08-30T11:19:05.596Z,114336
2017-08-30T11:20:15.605Z,113568
2017-08-30T11:21:25.904Z,121248
2017-08-30T11:22:36.138Z,117120
2017-08-30T11:23:46.453Z,108672
2017-08-30T11:24:56.778Z,112672
2017-08-30T11:26:06.751Z,106720
2017-08-30T11:27:16.749Z,104544
2017-08-30T11:28:27.300Z,103520
2017-08-30T11:29:37.311Z,103456
2017-08-30T11:30:47.631Z,104640
2017-08-30T11:31:57.934Z,108672
2017-08-30T11:33:08.252Z,112096
2017-08-30T11:34:18.485Z,117568
2017-08-30T11:35:28.948Z,117472
2017-08-30T11:36:39.233Z,113760
2017-08-30T11:37:49.550Z,113280
2017-08-30T11:38:59.967Z,116832
2017-08-30T11:40:10.522Z,108896
2017-08-30T11:41:20.831Z,113792
2017-08-30T11:42:31.123Z,104192
2017-08-30T11:43:41.423Z,114816
2017-08-30T11:44:51.713Z,107712
2017-08-30T11:46:02.784Z,111936
2017-08-30T11:47:12.828Z,115872
2017-08-30T11:48:23.129Z,115264
2017-08-30T11:49:33.486Z,111840
2017-08-30T11:50:43.761Z,113824
2017-08-30T11:51:54.377Z,127968
2017-08-30T11:53:04.686Z,125472
2017-08-30T11:54:14.724Z,123424
2017-08-30T11:55:25.010Z,127072
2017-08-30T11:56:35.326Z,125920
2017-08-30T11:57:45.878Z,125536
2017-08-30T11:58:56.264Z,123872
2017-08-30T12:00:06.540Z,121440
2017-08-30T12:01:16.834Z,122144
2017-08-30T12:02:27.132Z,126848
2017-08-30T12:03:37.681Z,128576
2017-08-30T12:04:47.982Z,125440
2017-08-30T12:05:58.260Z,120832
2017-08-30T12:07:08.230Z,127968
2017-08-30T12:08:18.559Z,129536
2017-08-30T12:09:29.099Z,120288
2017-08-30T12:10:39.404Z,124032
2017-08-30T12:11:49.707Z,126080
2017-08-30T12:13:00.002Z,127488
2017-08-30T12:14:09.976Z,124128
2017-08-30T12:15:20.573Z,120960
2017-08-30T12:16:30.551Z,120672
2017-08-30T12:17:40.905Z,118848
2017-08-30T12:18:50.905Z,119680
2017-08-30T12:20:01.288Z,116992
2017-08-30T12:21:11.828Z,91200
2017-08-30T12:22:21.805Z,56800
2017-08-30T12:23:32.105Z,72448
2017-08-30T12:24:42.398Z,67712
2017-08-30T12:25:52.387Z,79712
2017-08-30T12:27:02.942Z,79808
2017-08-30T12:28:13.249Z,85408
2017-08-30T12:29:23.210Z,81632
2017-08-30T12:30:33.494Z,105792
2017-08-30T12:31:43.781Z,119136
2017-08-30T12:32:54.012Z,127680
2017-08-30T12:34:04.288Z,125472
2017-08-30T12:35:14.279Z,121184
2017-08-30T12:36:24.271Z,123264
2017-08-30T12:37:34.616Z,120160
2017-08-30T12:38:45.185Z,103328
2017-08-30T12:39:55.485Z,114112
2017-08-30T12:41:05.793Z,100128
2017-08-30T12:42:15.812Z,99808
2017-08-30T12:43:25.787Z,96896
2017-08-30T12:44:36.401Z,81984
2017-08-30T12:45:46.727Z,93600
2017-08-30T12:46:57.027Z,92096
2017-08-30T12:48:06.702Z,103872
2017-08-30T12:49:16.695Z,122688
2017-08-30T12:50:27.282Z,96704
2017-08-30T12:51:36.960Z,69504
2017-08-30T12:52:47.248Z,68672
2017-08-30T12:53:57.563Z,77088
2017-08-30T12:55:07.546Z,89664
2017-08-30T12:56:17.780Z,58816
2017-08-30T12:57:27.762Z,71200
2017-08-30T12:58:37.753Z,61728
2017-08-30T12:59:47.725Z,64032
2017-08-30T13:00:58.030Z,70816
2017-08-30T13:02:08.241Z,69920
2017-08-30T13:03:18.212Z,73856
2017-08-30T13:04:28.194Z,88672
2017-08-30T13:05:38.487Z,74368
2017-08-30T13:06:48.473Z,70528
2017-08-30T13:07:59.007Z,62752
2017-08-30T13:09:08.980Z,65184
2017-08-30T13:10:18.959Z,76352
2017-08-30T13:11:29.257Z,65760
2017-08-30T13:12:39.233Z,64576
2017-08-30T13:13:49.773Z,66656
2017-08-30T13:15:00.070Z,71168
2017-08-30T13:16:09.735Z,72256
2017-08-30T13:17:20.020Z,72544
2017-08-30T13:18:30.313Z,62144
2017-08-30T13:19:40.541Z,50688
2017-08-30T13:20:50.816Z,40800
2017-08-30T13:22:00.806Z,39232
2017-08-30T13:23:11.092Z,40160
2017-08-30T13:24:21.375Z,37824
2017-08-30T13:25:31.290Z,38240
2017-08-30T13:26:41.580Z,41056
2017-08-30T13:27:51.872Z,40064
2017-08-30T13:29:02.167Z,41760
2017-08-30T13:30:12.446Z,47264
2017-08-30T13:31:22.665Z,51712
2017-08-30T13:32:32.952Z,56576
2017-08-30T13:33:43.263Z,46912
2017-08-30T13:34:53.560Z,50656
2017-08-30T13:36:03.829Z,56768
2017-08-30T13:37:14.380Z,52864
2017-08-30T13:38:24.051Z,52480
2017-08-30T13:39:34.370Z,47584
2017-08-30T13:40:44.661Z,46112
2017-08-30T13:41:54.956Z,46208
2017-08-30T13:43:05.511Z,48288
2017-08-30T13:44:15.792Z,45312
2017-08-30T13:45:25.761Z,51488
2017-08-30T13:46:35.735Z,47104
2017-08-30T13:47:46.019Z,44192
2017-08-30T13:48:56.557Z,41760
2017-08-30T13:50:06.529Z,43552
2017-08-30T13:51:16.513Z,44000
2017-08-30T13:52:26.830Z,45024
2017-08-30T13:53:37.173Z,49216
2017-08-30T13:54:47.082Z,53920
2017-08-30T13:55:57.361Z,56288
2017-08-30T13:57:07.696Z,61984
2017-08-30T13:58:17.995Z,63488
2017-08-30T13:59:28.283Z,71456
2017-08-30T14:00:38.524Z,61952
2017-08-30T14:01:48.195Z,61728
2017-08-30T14:02:58.201Z,53632
2017-08-30T14:04:08.485Z,58464
2017-08-30T14:05:18.461Z,73952
2017-08-30T14:06:28.694Z,96928
2017-08-30T14:07:38.996Z,80000
2017-08-30T14:08:49.296Z,74144
2017-08-30T14:09:59.575Z,74400
2017-08-30T14:11:09.881Z,58848
2017-08-30T14:12:20.425Z,54592
2017-08-30T14:13:30.400Z,56960
2017-08-30T14:14:40.709Z,79072
2017-08-30T14:15:50.691Z,67840
2017-08-30T14:17:00.641Z,46176
2017-08-30T14:18:10.875Z,36768
2017-08-30T14:19:21.223Z,34016
2017-08-30T14:20:31.204Z,36640
2017-08-30T14:21:41.504Z,35328
2017-08-30T14:22:51.477Z,36960
2017-08-30T14:24:02.088Z,38560
2017-08-30T14:25:12.073Z,48000
2017-08-30T14:26:22.072Z,63744
2017-08-30T14:27:32.352Z,58176
2017-08-30T14:28:42.004Z,64448
2017-08-30T14:29:52.543Z,61280
2017-08-30T14:31:02.515Z,70208
2017-08-30T14:32:12.498Z,58912
2017-08-30T14:33:22.790Z,49152
2017-08-30T14:34:33.072Z,63872
2017-08-30T14:35:43.604Z,63008
2017-08-30T14:36:53.904Z,44672
2017-08-30T14:38:04.208Z,48512
2017-08-30T14:39:14.492Z,44640
2017-08-30T14:40:24.476Z,44800
2017-08-30T14:41:34.714Z,69216
2017-08-30T14:42:45.026Z,86528
2017-08-30T14:43:55.035Z,89280
2017-08-30T14:45:04.701Z,90784
2017-08-30T14:46:15.000Z,92096
2017-08-30T14:47:25.220Z,83488
2017-08-30T14:48:35.513Z,76512
2017-08-30T14:49:45.488Z,85280
2017-08-30T14:50:55.449Z,84896
2017-08-30T14:52:05.725Z,86848
2017-08-30T14:53:16.278Z,81568
2017-08-30T14:54:26.265Z,87520
2017-08-30T14:55:36.560Z,81056
2017-08-30T14:56:46.552Z,70752
2017-08-30T14:57:56.856Z,70240
2017-08-30T14:59:07.393Z,76736
2017-08-30T15:00:17.077Z,80384
2017-08-30T15:01:27.379Z,77504
2017-08-30T15:02:37.656Z,78240
2017-08-30T15:03:47.626Z,75872
2017-08-30T15:04:58.186Z,72544
2017-08-30T15:06:08.501Z,72896
2017-08-30T15:07:18.796Z,71072
2017-08-30T15:08:29.079Z,67872
2017-08-30T15:09:39.377Z,63456
2017-08-30T15:10:49.926Z,67648
2017-08-30T15:12:00.228Z,68160
2017-08-30T15:13:10.512Z,68800
2017-08-30T15:14:20.815Z,70656
2017-08-30T15:15:31.134Z,69696
2017-08-30T15:16:41.346Z,70528
2017-08-30T15:17:51.646Z,70880
2017-08-30T15:19:01.954Z,65152
2017-08-30T15:20:11.914Z,68224
2017-08-30T15:21:21.903Z,68736
2017-08-30T15:22:32.454Z,68864
2017-08-30T15:23:42.749Z,72640
2017-08-30T15:24:53.045Z,68576
2017-08-30T15:26:03.025Z,69632
2017-08-30T15:27:13.314Z,68352
2017-08-30T15:28:23.545Z,63808
2017-08-30T15:29:33.526Z,64000
2017-08-30T15:30:43.189Z,63424
2017-08-30T15:31:53.511Z,62976
2017-08-30T15:33:03.490Z,63360
2017-08-30T15:34:14.032Z,61568
2017-08-30T15:35:24.352Z,60096
2017-08-30T15:36:34.643Z,58720
2017-08-30T15:37:44.956Z,58048